createdAt,value
2018-02-04T00:00:32.563Z,2.77
2018-02-04T00:03:00.237Z,3.10
2018-02-04T00:05:27.972Z,2.77
2018-02-04T00:07:56.029Z,3.20
2018-02-04T00:10:23.926Z,2.70
2018-02-04T00:12:52.040Z,3.40
2018-02-04T00:15:20.100Z,3.43
2018-02-04T00:17:48.988Z,3.27
2018-02-04T00:20:16.677Z,3.17
2018-02-04T00:22:44.331Z,3.50
2018-02-04T00:25:11.983Z,3.27
2018-02-04T00:27:39.591Z,3.40
2018-02-04T00:30:07.262Z,2.90
2018-02-04T00:32:34.874Z,3.47
2018-02-04T00:35:02.467Z,3.30
2018-02-04T00:37:30.171Z,3.60
2018-02-04T00:39:57.889Z,3.40
2018-02-04T00:42:25.947Z,2.90
2018-02-04T00:44:54.445Z,3.30
2018-02-04T00:47:22.024Z,2.50
2018-02-04T00:49:49.605Z,3.10
2018-02-04T00:52:17.452Z,3.00
2018-02-04T00:54:45.057Z,3.23
2018-02-04T00:57:12.650Z,2.90
2018-02-04T00:59:40.313Z,2.90
2018-02-04T01:02:07.898Z,2.70
2018-02-04T01:04:35.499Z,2.70
2018-02-04T01:07:03.265Z,3.00
2018-02-04T01:09:30.858Z,2.57
2018-02-04T01:11:58.697Z,3.00
2018-02-04T01:14:26.353Z,2.80
2018-02-04T01:16:53.951Z,2.10
2018-02-04T01:19:21.542Z,2.57
2018-02-04T01:21:49.179Z,3.40
2018-02-04T01:24:16.783Z,3.17
2018-02-04T01:26:44.386Z,3.50
2018-02-04T01:29:12.945Z,3.13
2018-02-04T01:31:41.030Z,3.67
2018-02-04T01:34:08.596Z,3.50
2018-02-04T01:36:36.240Z,3.33
2018-02-04T01:39:06.000Z,3.50
2018-02-04T01:41:33.597Z,3.90
2018-02-04T01:44:01.409Z,3.83
2018-02-04T01:46:29.031Z,3.60
2018-02-04T01:48:56.636Z,3.57
2018-02-04T01:51:24.293Z,3.80
2018-02-04T01:53:51.901Z,3.77
2018-02-04T01:56:19.486Z,3.93
2018-02-04T01:58:47.136Z,4.10
2018-02-04T02:01:14.734Z,5.77
2018-02-04T02:03:42.513Z,4.27
2018-02-04T02:06:10.195Z,3.57
2018-02-04T02:08:37.802Z,3.80
2018-02-04T02:11:05.469Z,3.53
2018-02-04T02:13:33.168Z,3.87
2018-02-04T02:16:01.740Z,3.77
2018-02-04T02:18:29.371Z,3.70
2018-02-04T02:20:57.275Z,4.03
2018-02-04T02:23:24.891Z,3.47
2018-02-04T02:25:52.475Z,4.10
2018-02-04T02:28:20.209Z,3.87
2018-02-04T02:30:48.359Z,4.10
2018-02-04T02:33:16.788Z,4.27
2018-02-04T02:35:44.521Z,4.30
2018-02-04T02:38:12.159Z,4.63
2018-02-04T02:40:39.806Z,4.57
2018-02-04T02:43:07.533Z,4.13
2018-02-04T02:45:35.256Z,4.33
2018-02-04T02:48:02.868Z,4.60
2018-02-04T02:50:30.538Z,4.10
2018-02-04T02:52:58.176Z,4.40
2018-02-04T02:55:25.751Z,4.30
2018-02-04T02:57:53.399Z,4.20
2018-02-04T03:00:20.976Z,4.33
2018-02-04T03:02:48.618Z,4.47
2018-02-04T03:05:16.255Z,4.20
2018-02-04T03:07:43.897Z,4.70
2018-02-04T03:10:11.539Z,5.03
2018-02-04T03:12:39.340Z,4.10
2018-02-04T03:15:06.958Z,4.20
2018-02-04T03:17:34.626Z,4.43
2018-02-04T03:20:02.512Z,4.10
2018-02-04T03:22:30.096Z,4.13
2018-02-04T03:24:58.638Z,4.87
2018-02-04T03:27:26.369Z,4.57
2018-02-04T03:29:53.998Z,3.70
2018-02-04T03:32:21.572Z,4.43
2018-02-04T03:34:49.222Z,4.23
2018-02-04T03:37:16.820Z,5.00
2018-02-04T03:39:44.423Z,4.50
2018-02-04T03:42:12.117Z,4.00
2018-02-04T03:44:39.705Z,4.00
2018-02-04T03:47:07.682Z,4.10
2018-02-04T03:49:35.312Z,4.30
2018-02-04T03:52:02.880Z,3.97
2018-02-04T03:54:30.477Z,4.17
2018-02-04T03:56:58.224Z,4.00
2018-02-04T03:59:25.821Z,3.87
2018-02-04T04:01:54.468Z,3.87
2018-02-04T04:04:22.112Z,3.50
2018-02-04T04:06:49.689Z,3.80
2018-02-04T04:09:17.712Z,3.80
2018-02-04T04:11:45.348Z,4.50
2018-02-04T04:14:12.954Z,4.13
2018-02-04T04:16:40.558Z,4.20
2018-02-04T04:19:08.424Z,3.87
2018-02-04T04:21:36.044Z,3.63
2018-02-04T04:24:03.654Z,4.30
2018-02-04T04:26:31.429Z,4.20
2018-02-04T04:28:59.019Z,3.60
2018-02-04T04:31:27.562Z,4.27
2018-02-04T04:33:55.956Z,3.87
2018-02-04T04:36:23.703Z,4.00
2018-02-04T04:38:51.395Z,4.30
2018-02-04T04:41:19.053Z,3.77
2018-02-04T04:43:46.635Z,3.83
2018-02-04T04:46:14.232Z,4.10
2018-02-04T04:48:41.981Z,3.90
2018-02-04T04:51:09.586Z,4.10
2018-02-04T04:53:37.159Z,4.07
2018-02-04T04:56:05.090Z,4.03
2018-02-04T04:58:32.664Z,3.67
2018-02-04T05:01:00.230Z,3.90
2018-02-04T05:03:28.008Z,4.10
2018-02-04T05:05:55.585Z,3.87
2018-02-04T05:08:23.767Z,3.57
2018-02-04T05:10:51.415Z,4.17
2018-02-04T05:13:18.990Z,3.97
2018-02-04T05:15:46.593Z,4.13
2018-02-04T05:18:14.239Z,4.30
2018-02-04T05:20:41.812Z,3.60
2018-02-04T05:23:10.185Z,4.10
2018-02-04T05:25:37.808Z,3.70
2018-02-04T05:28:05.449Z,2.63
2018-02-04T05:30:33.032Z,2.80
2018-02-04T05:33:00.673Z,1.83
2018-02-04T05:35:28.239Z,1.50
2018-02-04T05:37:55.804Z,1.13
2018-02-04T05:40:23.453Z,1.10
2018-02-04T05:42:51.045Z,1.00
2018-02-04T05:45:18.609Z,1.30
2018-02-04T05:47:46.259Z,1.27
2018-02-04T05:50:13.971Z,1.00
2018-02-04T05:52:41.546Z,0.80
2018-02-04T05:55:09.281Z,0.70
2018-02-04T05:57:36.900Z,0.77
2018-02-04T06:00:04.538Z,0.70
2018-02-04T06:02:32.155Z,0.70
2018-02-04T06:04:59.735Z,0.50
2018-02-04T06:07:27.365Z,0.63
2018-02-04T06:09:54.986Z,0.60
2018-02-04T06:12:22.546Z,0.60
2018-02-04T06:14:50.111Z,0.43
2018-02-04T06:17:17.909Z,0.50
2018-02-04T06:19:45.513Z,0.40
2018-02-04T06:22:13.126Z,0.50
2018-02-04T06:24:41.046Z,0.30
2018-02-04T06:27:08.631Z,0.47
2018-02-04T06:29:36.219Z,0.43
2018-02-04T06:32:03.835Z,0.60
2018-02-04T06:34:31.494Z,0.60
2018-02-04T06:36:59.084Z,0.20
2018-02-04T06:39:26.708Z,0.30
2018-02-04T06:41:54.348Z,0.40
2018-02-04T06:44:22.856Z,0.37
2018-02-04T06:46:50.499Z,0.70
2018-02-04T06:49:18.087Z,0.57
2018-02-04T06:51:45.732Z,0.53
2018-02-04T06:54:13.435Z,0.50
2018-02-04T06:56:41.004Z,0.30
2018-02-04T06:59:08.588Z,0.60
2018-02-04T07:01:36.224Z,0.60
2018-02-04T07:04:03.818Z,0.30
2018-02-04T07:06:31.377Z,0.37
2018-02-04T07:08:59.032Z,0.50
2018-02-04T07:11:26.597Z,0.40
2018-02-04T07:13:54.149Z,0.43
2018-02-04T07:16:22.085Z,0.50
2018-02-04T07:18:49.646Z,0.40
2018-02-04T07:21:17.197Z,0.40
2018-02-04T07:23:44.936Z,0.50
2018-02-04T07:26:12.524Z,0.70
2018-02-04T07:28:40.127Z,0.70
2018-02-04T07:31:07.728Z,0.50
2018-02-04T07:33:35.284Z,0.70
2018-02-04T07:36:02.911Z,0.60
2018-02-04T07:38:30.535Z,0.77
2018-02-04T07:40:58.097Z,0.70
2018-02-04T07:43:25.686Z,1.00
2018-02-04T07:45:53.343Z,0.50
2018-02-04T07:48:20.905Z,0.70
2018-02-04T07:50:48.514Z,0.43
2018-02-04T07:53:16.525Z,0.40
2018-02-04T07:55:47.746Z,0.47
2018-02-04T07:58:15.370Z,0.43
2018-02-04T08:00:43.133Z,0.40
2018-02-04T08:03:10.716Z,0.50
2018-02-04T08:05:38.284Z,0.40
2018-02-04T08:08:06.123Z,0.33
2018-02-04T08:10:33.769Z,0.57
2018-02-04T08:13:01.414Z,0.67
2018-02-04T08:15:29.029Z,0.50
2018-02-04T08:17:56.651Z,0.33
2018-02-04T08:20:24.219Z,0.60
2018-02-04T08:22:51.843Z,0.90
2018-02-04T08:25:19.409Z,1.27
2018-02-04T08:27:46.970Z,2.80
2018-02-04T08:30:14.604Z,4.60
2018-02-04T08:32:42.189Z,4.60
2018-02-04T08:35:09.888Z,5.30
2018-02-04T08:37:37.670Z,6.63
2018-02-04T08:40:05.246Z,9.80
2018-02-04T08:42:33.507Z,11.90
2018-02-04T08:45:01.137Z,13.40
2018-02-04T08:47:28.724Z,11.67
2018-02-04T08:49:56.303Z,9.07
2018-02-04T08:52:24.043Z,8.20
2018-02-04T08:54:51.751Z,2.80
2018-02-04T08:57:19.313Z,5.37
2018-02-04T08:59:47.176Z,16.30
2018-02-04T09:02:14.769Z,40.40
2018-02-04T09:04:42.338Z,5.50
2018-02-04T09:07:09.984Z,2.60
2018-02-04T09:09:37.637Z,6.13
2018-02-04T09:12:05.226Z,6.70
2018-02-04T09:14:32.949Z,4.87
2018-02-04T09:17:00.540Z,5.07
2018-02-04T09:19:28.160Z,5.20
2018-02-04T09:21:55.786Z,5.47
2018-02-04T09:24:23.346Z,4.80
2018-02-04T09:26:50.979Z,9.33
2018-02-04T09:29:18.821Z,10.07
2018-02-04T09:31:46.426Z,8.47
2018-02-04T09:34:14.027Z,10.63
2018-02-04T09:36:41.668Z,7.77
2018-02-04T09:39:09.250Z,10.20
2018-02-04T09:41:36.841Z,6.87
2018-02-04T09:44:04.477Z,2.20
2018-02-04T09:46:32.036Z,3.47
2018-02-04T09:48:59.605Z,4.10
2018-02-04T09:51:27.325Z,5.07
2018-02-04T09:53:54.900Z,5.00
2018-02-04T09:56:22.553Z,5.83
2018-02-04T09:58:50.542Z,6.70
2018-02-04T10:01:18.125Z,9.27
2018-02-04T10:03:45.693Z,3.20
2018-02-04T10:06:13.334Z,1.50
2018-02-04T10:08:40.902Z,1.67
2018-02-04T10:11:09.389Z,2.30
2018-02-04T10:13:37.016Z,2.27
2018-02-04T10:16:04.650Z,1.37
2018-02-04T10:18:32.237Z,1.23
2018-02-04T10:20:59.864Z,1.27
2018-02-04T10:23:27.423Z,1.70
2018-02-04T10:25:55.052Z,4.60
2018-02-04T10:28:22.794Z,3.60
2018-02-04T10:30:50.457Z,2.07
2018-02-04T10:33:17.331Z,1.50
2018-02-04T10:35:44.953Z,1.10
2018-02-04T10:38:12.538Z,1.30
2018-02-04T10:40:40.096Z,1.27
2018-02-04T10:43:08.005Z,1.13
2018-02-04T10:45:35.568Z,1.00
2018-02-04T10:48:03.162Z,0.90
2018-02-04T10:50:30.849Z,0.90
2018-02-04T10:52:58.465Z,0.80
2018-02-04T10:55:26.085Z,0.83
2018-02-04T10:57:53.925Z,1.00
2018-02-04T11:00:21.504Z,0.70
2018-02-04T11:02:49.059Z,0.90
2018-02-04T11:05:16.758Z,0.87
2018-02-04T11:07:44.341Z,1.20
2018-02-04T11:10:11.993Z,1.40
2018-02-04T11:12:39.641Z,1.50
2018-02-04T11:15:07.220Z,1.30
2018-02-04T11:17:34.783Z,0.90
2018-02-04T11:20:02.431Z,0.80
2018-02-04T11:22:30.028Z,1.40
2018-02-04T11:24:57.614Z,2.00
2018-02-04T11:27:24.997Z,1.27
2018-02-04T11:29:52.623Z,1.20
2018-02-04T11:32:21.309Z,1.60
2018-02-04T11:34:48.983Z,0.50
2018-02-04T11:37:16.549Z,0.97
2018-02-04T11:39:44.192Z,0.60
2018-02-04T11:42:11.815Z,0.60
2018-02-04T11:44:39.474Z,0.50
2018-02-04T11:47:07.068Z,0.63
2018-02-04T11:49:34.707Z,0.33
2018-02-04T11:52:02.305Z,0.93
2018-02-04T11:54:30.031Z,0.40
2018-02-04T11:56:57.659Z,0.43
2018-02-04T11:59:25.524Z,0.43
2018-02-04T12:01:53.080Z,0.50
2018-02-04T12:04:20.757Z,0.60
2018-02-04T12:06:48.328Z,0.70
2018-02-04T12:09:15.898Z,0.40
2018-02-04T12:11:43.501Z,0.80
2018-02-04T12:14:11.325Z,0.43
2018-02-04T12:16:38.933Z,0.80
2018-02-04T12:19:06.627Z,0.63
2018-02-04T12:21:34.304Z,0.80
2018-02-04T12:24:01.938Z,0.67
2018-02-04T12:26:29.671Z,0.60
2018-02-04T12:28:57.257Z,0.67
2018-02-04T12:31:24.826Z,0.70
2018-02-04T12:33:52.546Z,0.63
2018-02-04T12:36:20.126Z,0.90
2018-02-04T12:38:47.680Z,0.90
2018-02-04T12:41:15.309Z,0.70
2018-02-04T12:43:42.877Z,1.00
2018-02-04T12:46:10.510Z,0.57
2018-02-04T12:48:38.131Z,0.97
2018-02-04T12:51:05.723Z,0.90
2018-02-04T12:53:35.432Z,1.20
2018-02-04T12:56:03.217Z,2.73
2018-02-04T12:58:30.780Z,4.00
2018-02-04T13:00:58.400Z,3.40
2018-02-04T13:03:26.004Z,2.87
2018-02-04T13:05:53.577Z,5.70
2018-02-04T13:08:21.640Z,5.47
2018-02-04T13:10:49.271Z,4.63
2018-02-04T13:13:17.238Z,4.60
2018-02-04T13:15:44.852Z,6.67
2018-02-04T13:18:12.704Z,6.20
2018-02-04T13:20:40.269Z,6.60
2018-02-04T13:23:08.686Z,5.97
2018-02-04T13:25:36.388Z,3.43
2018-02-04T13:28:05.145Z,3.13
2018-02-04T13:30:32.732Z,3.33
2018-02-04T13:33:00.376Z,3.37
2018-02-04T13:35:27.984Z,4.60
2018-02-04T13:37:55.675Z,5.13
2018-02-04T13:40:23.481Z,5.63
2018-02-04T13:42:51.064Z,8.43
2018-02-04T13:45:18.644Z,6.97
2018-02-04T13:47:46.261Z,3.70
2018-02-04T13:50:13.862Z,4.13
2018-02-04T13:52:41.474Z,4.53
2018-02-04T13:55:10.213Z,5.80
2018-02-04T13:57:37.805Z,8.83
2018-02-04T14:00:05.496Z,15.13
2018-02-04T14:02:33.315Z,15.17
2018-02-04T14:05:00.890Z,12.20
2018-02-04T14:07:28.495Z,11.83
2018-02-04T14:09:56.219Z,5.60
2018-02-04T14:12:24.324Z,5.13
2018-02-04T14:14:51.922Z,5.10
2018-02-04T14:17:19.568Z,8.67
2018-02-04T14:19:47.199Z,3.27
2018-02-04T14:22:14.809Z,8.00
2018-02-04T14:24:42.469Z,6.80
2018-02-04T14:27:10.064Z,5.67
2018-02-04T14:29:37.668Z,6.33
2018-02-04T14:32:05.300Z,7.67
2018-02-04T14:34:32.876Z,4.53
2018-02-04T14:37:00.537Z,6.93
2018-02-04T14:39:28.165Z,7.53
2018-02-04T14:41:55.776Z,10.30
2018-02-04T14:44:23.418Z,9.23
2018-02-04T14:46:51.084Z,7.30
2018-02-04T14:49:18.670Z,7.20
2018-02-04T14:51:46.250Z,7.53
2018-02-04T14:54:14.214Z,9.00
2018-02-04T14:56:41.845Z,19.67
2018-02-04T14:59:09.445Z,24.53
2018-02-04T15:01:37.069Z,23.50
2018-02-04T15:04:04.832Z,22.70
2018-02-04T15:06:32.436Z,33.87
2018-02-04T15:09:00.084Z,26.13
2018-02-04T15:11:27.674Z,31.20
2018-02-04T15:13:55.262Z,21.63
2018-02-04T15:16:22.973Z,21.43
2018-02-04T15:18:50.579Z,14.63
2018-02-04T15:21:18.160Z,12.83
2018-02-04T15:23:45.893Z,16.90
2018-02-04T15:26:13.510Z,16.27
2018-02-04T15:28:41.098Z,20.10
2018-02-04T15:31:08.776Z,19.20
2018-02-04T15:33:36.357Z,19.50
2018-02-04T15:36:03.972Z,19.20
2018-02-04T15:38:31.949Z,20.63
2018-02-04T15:40:59.524Z,19.70
2018-02-04T15:43:27.121Z,20.77
2018-02-04T15:45:54.744Z,20.63
2018-02-04T15:48:22.336Z,20.00
2018-02-04T15:50:49.943Z,18.20
2018-02-04T15:53:17.609Z,18.27
2018-02-04T15:55:45.201Z,15.47
2018-02-04T15:58:13.126Z,16.53
2018-02-04T16:00:41.001Z,15.60
2018-02-04T16:03:08.626Z,15.00
2018-02-04T16:05:36.250Z,15.77
2018-02-04T16:08:04.446Z,16.80
2018-02-04T16:10:32.668Z,19.47
2018-02-04T16:13:00.318Z,21.43
2018-02-04T16:15:28.091Z,20.43
2018-02-04T16:17:55.806Z,23.33
2018-02-04T16:20:23.403Z,24.83
2018-02-04T16:22:51.117Z,24.33
2018-02-04T16:25:18.693Z,24.30
2018-02-04T16:27:46.273Z,26.33
2018-02-04T16:30:13.973Z,25.23
2018-02-04T16:32:41.575Z,25.73
2018-02-04T16:35:09.151Z,27.23
2018-02-04T16:37:36.804Z,29.90
2018-02-04T16:40:04.483Z,28.80
2018-02-04T16:42:32.072Z,27.93
2018-02-04T16:44:59.702Z,23.73
2018-02-04T16:47:27.327Z,21.97
2018-02-04T16:49:54.916Z,19.43
2018-02-04T16:52:22.621Z,18.30
2018-02-04T16:54:50.388Z,14.57
2018-02-04T16:57:18.066Z,13.73
2018-02-04T16:59:45.696Z,15.97
2018-02-04T17:02:13.283Z,13.23
2018-02-04T17:04:40.866Z,24.83
2018-02-04T17:07:08.720Z,10.80
2018-02-04T17:09:36.296Z,8.60
2018-02-04T17:12:03.914Z,9.33
2018-02-04T17:14:31.886Z,13.63
2018-02-04T17:16:59.528Z,7.27
2018-02-04T17:19:27.101Z,6.73
2018-02-04T17:21:54.752Z,6.93
2018-02-04T17:24:22.354Z,6.87
2018-02-04T17:26:50.013Z,5.33
2018-02-04T17:29:18.005Z,4.47
2018-02-04T17:31:45.650Z,5.07
2018-02-04T17:34:13.372Z,8.13
2018-02-04T17:36:41.044Z,10.67
2018-02-04T17:39:11.488Z,12.70
2018-02-04T17:41:42.861Z,9.93
2018-02-04T17:44:10.488Z,8.07
2018-02-04T17:46:38.293Z,9.17
2018-02-04T17:49:06.203Z,9.57
2018-02-04T17:51:33.827Z,10.10
2018-02-04T17:54:01.476Z,14.90
2018-02-04T17:56:29.186Z,15.57
2018-02-04T17:58:57.047Z,15.10
2018-02-04T18:01:24.702Z,15.27
2018-02-04T18:03:55.387Z,16.20
2018-02-04T18:06:23.228Z,21.30
2018-02-04T18:08:51.015Z,19.03
2018-02-04T18:11:18.841Z,14.07
2018-02-04T18:13:46.525Z,14.33
2018-02-04T18:16:14.252Z,12.57
2018-02-04T18:18:42.064Z,18.97
2018-02-04T18:21:09.921Z,19.77
2018-02-04T18:23:37.707Z,26.27
2018-02-04T18:26:05.405Z,28.93
2018-02-04T18:28:33.041Z,29.60
2018-02-04T18:31:00.691Z,31.27
2018-02-04T18:33:28.364Z,33.87
2018-02-04T18:35:56.110Z,31.10
2018-02-04T18:38:23.754Z,26.73
2018-02-04T18:40:51.582Z,27.90
2018-02-04T18:43:19.502Z,24.27
2018-02-04T18:45:47.166Z,24.73
2018-02-04T18:48:15.075Z,24.37
2018-02-04T18:50:42.715Z,21.70
2018-02-04T18:53:11.034Z,21.60
2018-02-04T18:55:38.860Z,24.57
2018-02-04T18:58:06.490Z,21.17
2018-02-04T19:00:34.104Z,17.33
2018-02-04T19:03:01.732Z,19.93
2018-02-04T19:05:29.400Z,19.63
2018-02-04T19:07:56.996Z,18.60
2018-02-04T19:10:24.977Z,18.97
2018-02-04T19:12:53.282Z,20.40
2018-02-04T19:15:20.897Z,22.37
2018-02-04T19:17:48.637Z,20.57
2018-02-04T19:20:16.284Z,21.57
2018-02-04T19:22:43.911Z,22.20
2018-02-04T19:25:11.875Z,22.73
2018-02-04T19:27:39.452Z,25.70
2018-02-04T19:30:07.086Z,24.87
2018-02-04T19:32:35.199Z,29.40
2018-02-04T19:35:02.913Z,32.10
2018-02-04T19:37:30.534Z,33.73
2018-02-04T19:39:58.203Z,32.17
2018-02-04T19:42:25.935Z,49.67
2018-02-04T19:44:53.512Z,45.53
2018-02-04T19:47:21.165Z,42.13
2018-02-04T19:49:48.757Z,43.97
2018-02-04T19:52:16.355Z,41.97
2018-02-04T19:54:44.052Z,41.33
2018-02-04T19:57:11.637Z,38.97
2018-02-04T19:59:39.238Z,38.57
2018-02-04T20:02:06.913Z,40.90
2018-02-04T20:04:34.598Z,43.57
2018-02-04T20:07:02.187Z,40.40
2018-02-04T20:09:30.062Z,39.80
2018-02-04T20:11:58.052Z,37.10
2018-02-04T20:14:25.692Z,31.57
2018-02-04T20:16:54.140Z,30.67
2018-02-04T20:19:22.326Z,31.23
2018-02-04T20:21:58.825Z,29.20
2018-02-04T20:24:38.135Z,26.27
2018-02-04T20:27:19.491Z,24.13
2018-02-04T20:30:01.435Z,22.57
2018-02-04T20:32:43.206Z,22.57
2018-02-04T20:35:11.696Z,19.63
2018-02-04T20:37:39.282Z,17.63
2018-02-04T20:40:06.936Z,16.00
2018-02-04T20:42:34.564Z,15.70
2018-02-04T20:45:02.206Z,13.50
2018-02-04T20:47:29.866Z,13.97
2018-02-04T20:49:57.476Z,13.40
2018-02-04T20:52:25.087Z,13.13
2018-02-04T20:54:52.944Z,12.73
2018-02-04T20:57:20.598Z,11.93
2018-02-04T20:59:48.218Z,10.20
2018-02-04T21:02:15.857Z,10.37
2018-02-04T21:04:44.618Z,10.53
2018-02-04T21:07:12.237Z,10.77
2018-02-04T21:09:39.895Z,10.87
2018-02-04T21:12:07.822Z,13.17
2018-02-04T21:14:35.495Z,14.63
2018-02-04T21:17:03.313Z,13.27
2018-02-04T21:19:30.893Z,15.57
2018-02-04T21:21:58.896Z,22.10
2018-02-04T21:24:26.575Z,19.37
2018-02-04T21:26:54.165Z,17.40
2018-02-04T21:29:21.815Z,11.77
2018-02-04T21:31:49.614Z,10.87
2018-02-04T21:34:17.192Z,10.73
2018-02-04T21:36:44.793Z,8.70
2018-02-04T21:39:13.492Z,9.87
2018-02-04T21:41:41.075Z,10.47
2018-02-04T21:44:08.655Z,10.20
2018-02-04T21:46:36.290Z,9.10
2018-02-04T21:49:04.546Z,8.43
2018-02-04T21:51:32.198Z,8.80
2018-02-04T21:53:59.841Z,8.70
2018-02-04T21:56:27.524Z,9.30
2018-02-04T21:58:55.103Z,8.80
2018-02-04T22:01:22.767Z,7.33
2018-02-04T22:03:50.356Z,8.17
2018-02-04T22:06:17.936Z,7.73
2018-02-04T22:08:45.870Z,8.30
2018-02-04T22:11:13.498Z,8.60
2018-02-04T22:13:41.142Z,8.60
2018-02-04T22:16:08.756Z,8.57
2018-02-04T22:18:37.321Z,8.73
2018-02-04T22:21:04.892Z,8.13
2018-02-04T22:23:32.633Z,8.57
2018-02-04T22:26:00.818Z,8.80
2018-02-04T22:28:28.397Z,8.43
2018-02-04T22:30:56.060Z,8.80
2018-02-04T22:33:23.632Z,8.27
2018-02-04T22:35:51.208Z,8.70
2018-02-04T22:38:20.147Z,8.50
2018-02-04T22:40:47.728Z,7.90
2018-02-04T22:43:16.011Z,9.20
2018-02-04T22:45:44.517Z,8.20
2018-02-04T22:48:12.166Z,7.90
2018-02-04T22:50:39.789Z,8.27
2018-02-04T22:53:07.530Z,7.93
2018-02-04T22:55:36.109Z,8.37
2018-02-04T22:58:03.767Z,8.30
2018-02-04T23:00:31.483Z,8.77
2018-02-04T23:02:59.158Z,8.17
2018-02-04T23:05:26.749Z,7.63
2018-02-04T23:07:54.377Z,8.00
2018-02-04T23:10:22.021Z,7.93
2018-02-04T23:12:49.614Z,7.93
2018-02-04T23:15:17.368Z,8.23
2018-02-04T23:17:44.960Z,8.30
2018-02-04T23:20:13.406Z,8.83
2018-02-04T23:22:41.098Z,8.77
2018-02-04T23:25:11.571Z,8.50
2018-02-04T23:27:39.253Z,8.10
2018-02-04T23:30:07.173Z,7.13
2018-02-04T23:32:34.751Z,7.73
2018-02-04T23:35:02.366Z,7.67
2018-02-04T23:37:30.007Z,7.40
2018-02-04T23:39:57.569Z,7.13
2018-02-04T23:42:25.204Z,7.33
2018-02-04T23:44:53.480Z,7.10
2018-02-04T23:47:21.049Z,7.10
2018-02-04T23:49:48.606Z,7.30
2018-02-04T23:52:16.285Z,6.80
2018-02-04T23:54:43.924Z,7.37
2018-02-04T23:57:11.496Z,6.20
2018-02-04T23:59:39.107Z,6.47
